Aérodrome :
LOGIN :

S'inscrire | Disclaimer

   EN    FR    IT 

 










Légende :    VFR   VFR Marginal   IFR   IFR Intensif   IFR Très Intensif
Visi : 
Plafond : 
>= 8 km
>= 3000ft
5 à 8 km
1000 à 3000 ft
1500m à 5 km
500 à 1000 ft
800 à 1500m
200 à 500 ft
< 800m
< 200 ft
Symboles :   Orages  Brouillard  Fortes neiges  Fortes précipitations  Vent > 20 kt
SIGMETs :   Divers  Orages  Givrage  Turbulence  Onde Orograph.  Cendres Volcan.







- Altitude de l'aérodrome : 299 ft
- Code IATA : EDM
- Voir les cartes d'approche


LFRI - La Roche Sur Yon - Les Ajoncs

DERNIER METAR :
  • 230830Z AUTO 30005KT 260V330 9999 FEW025 OVC032 20/14 Q1022 NOSIG

METARs EXPIRÉS :
  • 230800Z AUTO 33005KT 270V020 9999 FEW025 OVC033 20/14 Q1022 NOSIG
  • 230730Z AUTO 33004KT 280V010 9999 OVC033 19/14 Q1022 NOSIG
  • 230700Z AUTO 34005KT 310V010 9999 OVC034 19/13 Q1022 NOSIG
  • 230630Z AUTO 36004KT 310V030 9999 OVC034 19/14 Q1021 NOSIG
  • 230600Z AUTO 36004KT 9999 OVC034 18/14 Q1021 NOSIG

TAF TAF LFRI
Valide du 23 à 06h jusqu'au 24 à 06h UTC


230500Z 2306/2406 36005KT 9999 BKN017
BECMG 2310/2312 28010KT CAVOK
BECMG 2402/2404 BKN012
Pas de NOTAMs connus pour ce terrain.



MET'MAP, la Météo Aéronautique d'un coup d'oeil ! - Copyright ORBIFLY Décembre 2007 - Disclaimer

ORBIFLY MET'MAP TEAM :

Programmation & Développement : Alexandra Zaïnal
Conception & Développement : Baudouin d'Aumeries
Co-Programmation & Développement : Marc-Olivier Méhu
Soutien technique & logistique : Manuel Goepfert

Contact : metmap@orbifly.com




SOURCES & CREDITS :

   NOAA